createdAt,value
2023-01-22T00:00:13.818Z,102293.84
2023-01-22T00:02:44.793Z,102290.38
2023-01-22T00:05:12.445Z,102289.63
2023-01-22T00:07:39.985Z,102295.75
2023-01-22T00:10:07.751Z,102293.09
2023-01-22T00:12:36.106Z,102299.16
2023-01-22T00:15:04.421Z,102287.78
2023-01-22T00:17:32.349Z,102295.53
2023-01-22T00:19:59.872Z,102293.81
2023-01-22T00:22:27.396Z,102299.00
2023-01-22T00:24:55.161Z,102300.91
2023-01-22T00:27:22.655Z,102307.75
2023-01-22T00:29:52.160Z,102300.03
2023-01-22T00:32:19.946Z,102298.13
2023-01-22T00:34:52.349Z,102300.81
2023-01-22T00:37:20.502Z,102297.34
2023-01-22T00:39:48.021Z,102304.34
2023-01-22T00:42:15.562Z,102314.00
2023-01-22T00:44:43.126Z,102311.31
2023-01-22T00:47:10.880Z,102306.00
2023-01-22T00:49:38.502Z,102308.78
2023-01-22T00:52:05.993Z,102316.59
2023-01-22T00:54:33.943Z,102301.78
2023-01-22T00:57:01.810Z,102310.50
2023-01-22T00:59:30.559Z,102314.88
2023-01-22T01:01:58.220Z,102308.72
2023-01-22T01:04:27.190Z,102304.22
2023-01-22T01:06:56.157Z,102299.00
2023-01-22T01:09:23.777Z,102306.91
2023-01-22T01:11:51.401Z,102307.84
2023-01-22T01:14:18.979Z,102309.56
2023-01-22T01:16:49.337Z,102311.25
2023-01-22T01:19:17.795Z,102313.03
2023-01-22T01:21:45.348Z,102312.34
2023-01-22T01:24:13.080Z,102315.78
2023-01-22T01:26:41.814Z,102314.94
2023-01-22T01:29:11.385Z,102328.03
2023-01-22T01:31:39.421Z,102321.88
2023-01-22T01:34:08.821Z,102334.91
2023-01-22T01:36:48.393Z,102331.44
2023-01-22T01:39:17.550Z,102340.22
2023-01-22T01:41:45.117Z,102330.63
2023-01-22T01:44:19.369Z,102330.56
2023-01-22T01:46:54.196Z,102335.84
2023-01-22T01:49:28.553Z,102330.66
2023-01-22T01:52:01.245Z,102330.72
2023-01-22T01:54:29.592Z,102328.97
2023-01-22T01:57:05.249Z,102328.06
2023-01-22T01:59:35.231Z,102324.66
2023-01-22T02:02:04.242Z,102321.09
2023-01-22T02:04:31.878Z,102327.09
2023-01-22T02:06:59.482Z,102327.03
2023-01-22T02:09:27.622Z,102318.44
2023-01-22T02:11:55.856Z,102320.25
2023-01-22T02:14:29.004Z,102325.53
2023-01-22T02:17:15.245Z,102325.59
2023-01-22T02:19:44.223Z,102320.34
2023-01-22T02:22:25.587Z,102318.56
2023-01-22T02:24:53.483Z,102316.81
2023-01-22T02:27:21.444Z,102320.31
2023-01-22T02:29:51.792Z,102315.09
2023-01-22T02:32:19.519Z,102316.03
2023-01-22T02:34:47.678Z,102314.28
2023-01-22T02:37:15.245Z,102316.97
2023-01-22T02:39:42.910Z,102313.56
2023-01-22T02:42:10.610Z,102308.28
2023-01-22T02:44:39.426Z,102298.72
2023-01-22T02:47:06.927Z,102297.00
2023-01-22T02:49:35.188Z,102298.78
2023-01-22T02:52:02.967Z,102303.94
2023-01-22T02:54:31.657Z,102297.91
2023-01-22T02:56:59.753Z,102294.50
2023-01-22T02:59:27.495Z,102304.88
2023-01-22T03:01:57.355Z,102296.22
2023-01-22T03:04:27.499Z,102299.72
2023-01-22T03:06:55.120Z,102300.59
2023-01-22T03:09:28.515Z,102310.22
2023-01-22T03:11:56.873Z,102309.34
2023-01-22T03:14:47.144Z,102306.78
2023-01-22T03:17:34.682Z,102308.53
2023-01-22T03:20:20.791Z,102317.28
2023-01-22T03:22:49.254Z,102318.97
2023-01-22T03:25:16.962Z,102319.88
2023-01-22T03:28:04.123Z,102319.03
2023-01-22T03:30:34.278Z,102313.84
2023-01-22T03:33:02.850Z,102312.06
2023-01-22T03:35:31.082Z,102321.69
2023-01-22T03:38:12.750Z,102323.41
2023-01-22T03:40:41.824Z,102324.34
2023-01-22T03:43:10.118Z,102324.25
2023-01-22T03:45:37.836Z,102320.81
2023-01-22T03:48:06.866Z,102320.81
2023-01-22T03:50:38.976Z,102323.38
2023-01-22T03:53:07.095Z,102324.22
2023-01-22T03:55:34.948Z,102325.09
2023-01-22T03:58:03.694Z,102335.59
2023-01-22T04:00:31.444Z,102332.13
2023-01-22T04:02:59.731Z,102329.50
2023-01-22T04:05:32.889Z,102333.06
2023-01-22T04:08:02.259Z,102335.69
2023-01-22T04:10:31.908Z,102334.78
2023-01-22T04:13:02.560Z,102337.44
2023-01-22T04:15:30.291Z,102341.84
2023-01-22T04:17:59.427Z,102342.59
2023-01-22T04:20:41.728Z,102326.84
2023-01-22T04:23:19.694Z,102340.88
2023-01-22T04:25:48.323Z,102342.56
2023-01-22T04:28:16.771Z,102341.72
2023-01-22T04:30:46.944Z,102351.34
2023-01-22T04:33:33.178Z,102340.06
2023-01-22T04:36:06.053Z,102343.47
2023-01-22T04:38:33.723Z,102339.88
2023-01-22T04:41:03.475Z,102341.53
2023-01-22T04:43:32.577Z,102339.81
2023-01-22T04:46:00.310Z,102356.25
2023-01-22T04:48:31.505Z,102352.78
2023-01-22T04:51:00.847Z,102361.53
2023-01-22T04:53:30.930Z,102358.84
2023-01-22T04:55:58.584Z,102367.53
2023-01-22T04:58:26.801Z,102374.53
2023-01-22T05:00:57.671Z,102368.38
2023-01-22T05:03:25.238Z,102376.19
2023-01-22T05:05:54.917Z,102368.38
2023-01-22T05:08:23.014Z,102378.91
2023-01-22T05:10:51.623Z,102382.44
2023-01-22T05:13:25.438Z,102384.19
2023-01-22T05:15:53.129Z,102387.63
2023-01-22T05:18:20.897Z,102387.59
2023-01-22T05:20:51.716Z,102392.81
2023-01-22T05:23:21.118Z,102398.84
2023-01-22T05:25:49.846Z,102392.75
2023-01-22T05:28:21.866Z,102395.34
2023-01-22T05:31:05.396Z,102397.97
2023-01-22T05:33:47.308Z,102398.84
2023-01-22T05:36:15.961Z,102407.59
2023-01-22T05:38:44.176Z,102405.97
2023-01-22T05:41:11.857Z,102406.88
2023-01-22T05:43:43.543Z,102416.50
2023-01-22T05:46:17.060Z,102418.25
2023-01-22T05:49:05.260Z,102416.50
2023-01-22T05:51:37.144Z,102416.50
2023-01-22T05:54:06.084Z,102424.25
2023-01-22T05:56:36.855Z,102420.78
2023-01-22T05:59:04.346Z,102422.44
2023-01-22T06:01:31.868Z,102427.53
2023-01-22T06:04:00.140Z,102431.03
2023-01-22T06:06:31.265Z,102427.59
2023-01-22T06:08:59.895Z,102428.53
2023-01-22T06:11:32.939Z,102424.06
2023-01-22T06:14:00.813Z,102429.38
2023-01-22T06:16:28.921Z,102429.25
2023-01-22T06:18:56.548Z,102425.69
2023-01-22T06:21:27.883Z,102436.13
2023-01-22T06:23:56.220Z,102437.94
2023-01-22T06:26:24.861Z,102435.25
2023-01-22T06:28:53.063Z,102438.75
2023-01-22T06:31:21.150Z,102444.97
2023-01-22T06:33:48.784Z,102441.44
2023-01-22T06:36:16.660Z,102444.09
2023-01-22T06:38:44.281Z,102444.06
2023-01-22T06:41:16.102Z,102454.53
2023-01-22T06:43:45.206Z,102447.47
2023-01-22T06:46:12.983Z,102463.16
2023-01-22T06:49:02.780Z,102459.66
2023-01-22T06:51:31.122Z,102466.63
2023-01-22T06:54:00.027Z,102470.09
2023-01-22T06:56:28.595Z,102464.97
2023-01-22T06:58:58.001Z,102471.13
2023-01-22T07:01:26.149Z,102466.75
2023-01-22T07:03:53.800Z,102464.16
2023-01-22T07:06:21.596Z,102464.22
2023-01-22T07:08:49.335Z,102462.34
2023-01-22T07:11:17.196Z,102473.72
2023-01-22T07:13:44.770Z,102474.66
2023-01-22T07:16:12.950Z,102466.69
2023-01-22T07:18:42.613Z,102474.50
2023-01-22T07:21:11.915Z,102470.16
2023-01-22T07:23:39.535Z,102468.44
2023-01-22T07:26:07.221Z,102474.66
2023-01-22T07:28:34.733Z,102466.03
2023-01-22T07:31:03.778Z,102470.47
2023-01-22T07:33:31.755Z,102475.53
2023-01-22T07:35:59.248Z,102473.94
2023-01-22T07:38:27.993Z,102469.59
2023-01-22T07:41:16.874Z,102473.19
2023-01-22T07:43:49.459Z,102473.94
2023-01-22T07:46:19.362Z,102477.28
2023-01-22T07:48:46.952Z,102470.44
2023-01-22T07:51:15.113Z,102477.41
2023-01-22T07:53:43.065Z,102489.66
2023-01-22T07:56:10.712Z,102486.25
2023-01-22T07:58:39.474Z,102489.78
2023-01-22T08:01:07.700Z,102488.00
2023-01-22T08:12:41.420Z,102481.84
2023-01-22T08:15:10.543Z,102485.25
2023-01-22T08:17:38.847Z,102480.97
2023-01-22T08:20:09.071Z,102483.47
2023-01-22T08:22:37.011Z,102481.63
2023-01-22T08:25:05.064Z,102481.69
2023-01-22T08:27:35.379Z,102491.31
2023-01-22T08:30:04.584Z,102478.41
2023-01-22T08:32:32.980Z,102486.25
2023-01-22T08:35:00.614Z,102489.66
2023-01-22T08:37:28.173Z,102491.34
2023-01-22T08:39:56.295Z,102477.34
2023-01-22T08:42:24.333Z,102483.50
2023-01-22T08:44:51.828Z,102471.41
2023-01-22T08:47:27.631Z,102470.53
2023-01-22T08:55:24.653Z,102461.91
2023-01-22T08:57:58.355Z,102466.31
2023-01-22T09:00:26.299Z,102465.50
2023-01-22T09:02:59.139Z,102466.25
2023-01-22T09:05:27.965Z,102467.03
2023-01-22T09:07:56.673Z,102470.59
2023-01-22T09:10:26.984Z,102467.19
2023-01-22T09:12:54.875Z,102462.06
2023-01-22T09:15:22.483Z,102466.44
2023-01-22T09:17:49.979Z,102457.78
2023-01-22T09:20:18.079Z,102457.72
2023-01-22T09:22:46.931Z,102459.34
2023-01-22T09:25:15.453Z,102453.44
2023-01-22T09:27:42.995Z,102456.94
2023-01-22T09:30:11.451Z,102455.19
2023-01-22T09:32:41.395Z,102456.94
2023-01-22T09:35:09.378Z,102453.59
2023-01-22T09:37:36.874Z,102451.88
2023-01-22T09:40:04.866Z,102447.50
2023-01-22T09:42:38.273Z,102456.97
2023-01-22T09:45:13.652Z,102448.22
2023-01-22T09:47:49.425Z,102445.72
2023-01-22T09:50:34.117Z,102436.16
2023-01-22T09:53:06.469Z,102442.28
2023-01-22T10:00:39.713Z,102433.69
2023-01-22T10:03:22.776Z,102429.25
2023-01-22T10:05:59.304Z,102430.09
2023-01-22T10:08:33.346Z,102431.88
2023-01-22T10:11:03.552Z,102433.63
2023-01-22T10:13:35.099Z,102418.84
2023-01-22T10:16:03.782Z,102422.38
2023-01-22T10:18:50.214Z,102413.53
2023-01-22T10:21:20.724Z,102418.75
2023-01-22T10:23:50.306Z,102421.41
2023-01-22T10:26:29.341Z,102411.84
2023-01-22T10:29:00.578Z,102422.22
2023-01-22T10:31:31.456Z,102406.56
2023-01-22T10:34:05.044Z,102411.84
2023-01-22T10:36:34.444Z,102411.03
2023-01-22T10:39:06.649Z,102400.53
2023-01-22T10:41:34.259Z,102399.69
2023-01-22T10:44:17.857Z,102402.34
2023-01-22T10:46:49.925Z,102407.59
2023-01-22T10:49:26.337Z,102398.94
2023-01-22T10:51:56.830Z,102395.34
2023-01-22T10:54:36.036Z,102396.25
2023-01-22T10:57:27.363Z,102394.44
2023-01-22T11:00:21.738Z,102388.38
2023-01-22T11:02:50.893Z,102389.28
2023-01-22T11:05:30.627Z,102385.72
2023-01-22T11:08:06.482Z,102385.69
2023-01-22T11:10:46.746Z,102381.34
2023-01-22T11:13:20.843Z,102387.50
2023-01-22T11:16:05.225Z,102379.66
2023-01-22T11:18:39.609Z,102384.06
2023-01-22T11:21:19.670Z,102385.84
2023-01-22T11:23:53.432Z,102379.75
2023-01-22T11:26:48.634Z,102376.28
2023-01-22T11:29:33.631Z,102378.81
2023-01-22T11:32:13.177Z,102376.19
2023-01-22T11:35:06.599Z,102384.84
2023-01-22T11:38:11.678Z,102389.25
2023-01-22T11:41:12.358Z,102379.66
2023-01-22T11:44:09.328Z,102380.41
2023-01-22T11:46:58.558Z,102387.38
2023-01-22T11:50:02.185Z,102385.72
2023-01-22T11:52:48.348Z,102385.81
2023-01-22T11:55:21.602Z,102391.03
2023-01-22T11:58:39.611Z,102391.03
2023-01-22T12:01:32.024Z,102398.06
2023-01-22T12:04:11.514Z,102396.34
2023-01-22T12:06:45.161Z,102400.66
2023-01-22T12:09:30.489Z,102398.88
2023-01-22T12:12:31.709Z,102399.78
2023-01-22T12:15:33.695Z,102401.47
2023-01-22T12:18:33.756Z,102399.66
2023-01-22T12:21:49.366Z,102404.78
2023-01-22T12:24:32.488Z,102394.47
2023-01-22T12:27:10.733Z,102397.03
2023-01-22T12:29:49.740Z,102396.16
2023-01-22T12:32:22.212Z,102403.09
2023-01-22T12:35:06.488Z,102399.59
2023-01-22T12:37:46.206Z,102411.75
2023-01-22T12:40:27.290Z,102408.31
2023-01-22T12:43:07.939Z,102409.06
2023-01-22T12:45:59.292Z,102415.22
2023-01-22T12:48:48.519Z,102411.72
2023-01-22T12:51:47.059Z,102411.59
2023-01-22T12:54:20.553Z,102407.22
2023-01-22T12:56:50.625Z,102411.53
2023-01-22T12:59:43.439Z,102411.59
2023-01-22T13:02:24.342Z,102413.31
2023-01-22T13:04:53.354Z,102418.47
2023-01-22T13:07:20.940Z,102410.59
2023-01-22T13:09:49.203Z,102414.13
2023-01-22T13:12:28.825Z,102411.41
2023-01-22T13:14:56.897Z,102418.28
2023-01-22T13:17:27.712Z,102420.97
2023-01-22T13:19:56.564Z,102409.72
2023-01-22T13:22:26.996Z,102413.09
2023-01-22T13:24:58.151Z,102424.38
2023-01-22T13:27:28.155Z,102424.38
2023-01-22T13:30:16.319Z,102422.66
2023-01-22T13:32:44.397Z,102421.72
2023-01-22T13:35:15.085Z,102424.31
2023-01-22T13:37:45.291Z,102432.22
2023-01-22T13:40:15.759Z,102432.94
2023-01-22T13:42:46.148Z,102436.41
2023-01-22T13:45:16.886Z,102435.47
2023-01-22T13:47:45.352Z,102432.00
2023-01-22T13:50:25.723Z,102429.31
2023-01-22T13:52:53.804Z,102432.78
2023-01-22T13:55:23.553Z,102437.94
2023-01-22T13:57:54.697Z,102433.59
2023-01-22T14:00:25.500Z,102443.13
2023-01-22T14:02:54.263Z,102442.25
2023-01-22T14:05:27.254Z,102449.22
2023-01-22T14:08:13.117Z,102445.84
2023-01-22T14:10:43.259Z,102453.66
2023-01-22T14:13:13.460Z,102450.97
2023-01-22T14:15:41.778Z,102443.00
2023-01-22T14:18:18.398Z,102454.34
2023-01-22T14:20:47.575Z,102457.00
2023-01-22T14:23:15.641Z,102457.84
2023-01-22T14:25:46.443Z,102454.31
2023-01-22T14:28:14.336Z,102461.06
2023-01-22T14:30:42.132Z,102459.25
2023-01-22T14:33:17.645Z,102468.00
2023-01-22T14:35:45.301Z,102466.03
2023-01-22T14:38:13.025Z,102472.94
2023-01-22T14:40:41.732Z,102475.56
2023-01-22T14:43:09.442Z,102475.72
2023-01-22T14:45:40.589Z,102479.41
2023-01-22T14:48:11.505Z,102479.31
2023-01-22T14:50:40.737Z,102481.75
2023-01-22T14:53:09.713Z,102481.72
2023-01-22T14:55:37.474Z,102481.75
2023-01-22T14:58:08.513Z,102486.19
2023-01-22T15:00:36.877Z,102484.84
2023-01-22T15:03:05.244Z,102491.00
2023-01-22T15:05:35.505Z,102484.84
2023-01-22T15:08:03.539Z,102494.38
2023-01-22T15:10:31.667Z,102493.47
2023-01-22T15:12:59.556Z,102499.38
2023-01-22T15:15:28.528Z,102505.66
2023-01-22T15:17:57.429Z,102507.38
2023-01-22T15:20:25.781Z,102502.28
2023-01-22T15:22:53.343Z,102497.16
2023-01-22T15:25:20.884Z,102504.03
2023-01-22T15:27:48.352Z,102509.09
2023-01-22T15:30:16.552Z,102509.00
2023-01-22T15:32:44.958Z,102511.50
2023-01-22T15:35:12.756Z,102504.59
2023-01-22T15:37:40.469Z,102509.78
2023-01-22T15:40:10.228Z,102510.56
2023-01-22T15:42:37.933Z,102512.28
2023-01-22T15:45:06.803Z,102520.19
2023-01-22T15:47:35.355Z,102522.72
2023-01-22T15:50:03.979Z,102521.78
2023-01-22T15:52:31.767Z,102516.75
2023-01-22T15:54:59.480Z,102527.16
2023-01-22T15:57:27.729Z,102524.53
2023-01-22T15:59:55.270Z,102519.47
2023-01-22T16:02:22.850Z,102523.00
2023-01-22T16:04:50.856Z,102519.56
2023-01-22T16:07:18.431Z,102508.34
2023-01-22T16:09:46.033Z,102520.53
2023-01-22T16:12:13.578Z,102517.81
2023-01-22T16:14:42.082Z,102517.63
2023-01-22T16:17:09.733Z,102517.69
2023-01-22T16:19:37.249Z,102522.91
2023-01-22T16:22:05.619Z,102515.16
2023-01-22T16:24:33.490Z,102518.38
2023-01-22T16:27:01.020Z,102520.88
2023-01-22T16:29:28.556Z,102523.59
2023-01-22T16:31:56.515Z,102516.81
2023-01-22T16:34:24.238Z,102512.56
2023-01-22T16:36:52.002Z,102515.97
2023-01-22T16:39:21.846Z,102517.63
2023-01-22T16:41:50.841Z,102514.19
2023-01-22T16:44:20.423Z,102510.78
2023-01-22T16:46:59.984Z,102519.63
2023-01-22T16:49:32.895Z,102520.53
2023-01-22T16:52:16.699Z,102523.00
2023-01-22T16:54:49.558Z,102525.69
2023-01-22T16:57:19.353Z,102514.22
2023-01-22T16:59:47.134Z,102523.69
2023-01-22T17:02:16.419Z,102521.19
2023-01-22T17:04:46.086Z,102522.69
2023-01-22T17:07:27.851Z,102520.09
2023-01-22T17:10:00.154Z,102524.63
2023-01-22T17:12:27.762Z,102532.31
2023-01-22T17:14:58.591Z,102529.81
2023-01-22T17:17:26.447Z,102527.94
2023-01-22T17:19:54.858Z,102533.03
2023-01-22T17:22:24.390Z,102533.97
2023-01-22T17:24:52.722Z,102539.84
2023-01-22T17:27:21.603Z,102536.50
2023-01-22T17:29:49.137Z,102546.03
2023-01-22T17:32:16.648Z,102557.19
2023-01-22T17:34:44.316Z,102549.47
2023-01-22T17:37:13.670Z,102552.84
2023-01-22T17:39:43.069Z,102553.84
2023-01-22T17:42:10.693Z,102558.19
2023-01-22T17:44:39.608Z,102559.03
2023-01-22T17:47:07.737Z,102557.13
2023-01-22T17:49:36.060Z,102554.72
2023-01-22T17:52:04.541Z,102557.28
2023-01-22T17:54:32.088Z,102556.31
2023-01-22T17:56:59.997Z,102553.78
2023-01-22T17:59:27.502Z,102560.66
2023-01-22T18:01:55.135Z,102555.44
2023-01-22T18:04:23.500Z,102557.19
2023-01-22T18:11:57.919Z,102553.66
2023-01-22T18:14:28.435Z,102568.56
2023-01-22T18:16:55.949Z,102568.53
2023-01-22T18:19:24.783Z,102564.19
2023-01-22T18:21:52.505Z,102567.63
2023-01-22T18:24:23.113Z,102565.22
2023-01-22T18:26:50.789Z,102566.06
2023-01-22T18:29:18.331Z,102573.09
2023-01-22T18:31:46.036Z,102569.66
2023-01-22T18:34:15.058Z,102562.63
2023-01-22T18:36:44.188Z,102572.94
2023-01-22T18:39:18.239Z,102564.25
2023-01-22T18:41:47.096Z,102567.94
2023-01-22T18:44:16.313Z,102564.44
2023-01-22T18:46:47.500Z,102574.75
2023-01-22T18:49:18.857Z,102572.13
2023-01-22T18:51:46.967Z,102564.41
2023-01-22T18:54:15.595Z,102568.91
2023-01-22T18:56:43.345Z,102562.72
2023-01-22T18:59:13.066Z,102574.97
2023-01-22T19:01:41.256Z,102571.50
2023-01-22T19:04:20.315Z,102575.06
2023-01-22T19:06:53.593Z,102576.06
2023-01-22T19:09:21.667Z,102572.38
2023-01-22T19:11:52.337Z,102572.19
2023-01-22T19:14:21.751Z,102570.53
2023-01-22T19:16:51.564Z,102573.16
2023-01-22T19:19:20.510Z,102568.81
2023-01-22T19:21:55.817Z,102566.28
2023-01-22T19:24:27.919Z,102566.38
2023-01-22T19:26:57.094Z,102568.06
2023-01-22T19:29:26.536Z,102567.16
2023-01-22T19:31:55.798Z,102556.00
2023-01-22T19:34:24.365Z,102561.38
2023-01-22T19:36:56.925Z,102557.84
2023-01-22T19:39:25.657Z,102561.31
2023-01-22T19:41:54.400Z,102565.81
2023-01-22T19:44:23.097Z,102563.22
2023-01-22T19:46:50.762Z,102557.16
2023-01-22T19:49:18.450Z,102561.44
2023-01-22T19:51:46.193Z,102562.97
2023-01-22T19:54:14.359Z,102560.22
2023-01-22T19:56:45.999Z,102553.03
2023-01-22T19:59:16.156Z,102555.00
2023-01-22T20:01:45.764Z,102557.59
2023-01-22T20:04:21.523Z,102549.78
2023-01-22T20:06:51.812Z,102559.44
2023-01-22T20:09:21.733Z,102550.78
2023-01-22T20:11:53.921Z,102555.13
2023-01-22T20:14:23.051Z,102556.06
2023-01-22T20:16:50.842Z,102553.41
2023-01-22T20:19:18.571Z,102557.59
2023-01-22T20:21:46.274Z,102554.16
2023-01-22T20:24:13.824Z,102561.88
2023-01-22T20:26:41.362Z,102556.63
2023-01-22T20:29:09.175Z,102557.53
2023-01-22T20:31:36.692Z,102554.00
2023-01-22T20:34:05.041Z,102551.31
2023-01-22T20:36:33.283Z,102558.28
2023-01-22T20:39:01.863Z,102549.78
2023-01-22T20:41:30.859Z,102559.25
2023-01-22T20:43:58.760Z,102550.56
2023-01-22T20:46:27.316Z,102556.63
2023-01-22T20:48:57.621Z,102550.53
2023-01-22T20:51:27.874Z,102550.53
2023-01-22T20:53:57.190Z,102552.19
2023-01-22T20:56:30.474Z,102560.97
2023-01-22T20:59:04.400Z,102558.63
2023-01-22T21:01:33.091Z,102566.44
2023-01-22T21:04:04.696Z,102557.81
2023-01-22T21:06:34.500Z,102565.63
2023-01-22T21:09:02.503Z,102562.84
2023-01-22T21:11:32.183Z,102552.28
2023-01-22T21:14:01.469Z,102554.97
2023-01-22T21:16:32.797Z,102546.13
2023-01-22T21:19:06.046Z,102554.03
2023-01-22T21:21:35.635Z,102551.44
2023-01-22T21:24:03.559Z,102547.00
2023-01-22T21:26:32.703Z,102542.63
2023-01-22T21:29:03.997Z,102549.69
2023-01-22T21:31:33.586Z,102548.81
2023-01-22T21:34:03.584Z,102547.09
2023-01-22T21:36:36.807Z,102553.16
2023-01-22T21:39:06.990Z,102543.72
2023-01-22T21:41:35.931Z,102542.78
2023-01-22T21:44:22.214Z,102537.53
2023-01-22T21:46:50.015Z,102547.06
2023-01-22T21:49:22.654Z,102540.34
2023-01-22T21:51:51.944Z,102544.72
2023-01-22T21:54:37.505Z,102545.47
2023-01-22T21:57:07.015Z,102546.03
2023-01-22T21:59:36.918Z,102557.31
2023-01-22T22:02:06.560Z,102544.28
2023-01-22T22:04:35.541Z,102547.63
2023-01-22T22:12:34.688Z,102549.25
2023-01-22T22:15:03.098Z,102552.69
2023-01-22T22:17:30.984Z,102546.53
2023-01-22T22:19:58.507Z,102558.81
2023-01-22T22:22:26.105Z,102559.84
2023-01-22T22:24:55.114Z,102561.53
2023-01-22T22:27:22.635Z,102563.34
2023-01-22T22:29:53.269Z,102557.28
2023-01-22T22:32:22.063Z,102557.25
2023-01-22T22:34:49.867Z,102555.56
2023-01-22T22:37:17.620Z,102550.97
2023-01-22T22:39:45.094Z,102553.44
2023-01-22T22:43:28.273Z,102541.41
2023-01-22T22:45:55.891Z,102547.63
2023-01-22T22:48:24.332Z,102557.06
2023-01-22T22:50:51.842Z,102550.09
2023-01-22T22:53:19.292Z,102549.34
2023-01-22T22:55:47.345Z,102551.84
2023-01-22T22:58:15.147Z,102556.19
2023-01-22T23:00:43.013Z,102557.94
2023-01-22T23:03:10.651Z,102560.47
2023-01-22T23:05:39.202Z,102561.41
2023-01-22T23:08:07.057Z,102561.50
2023-01-22T23:10:37.840Z,102554.44
2023-01-22T23:13:05.986Z,102558.66
2023-01-22T23:15:34.247Z,102555.19
2023-01-22T23:18:01.895Z,102562.25
2023-01-22T23:20:29.621Z,102559.63
2023-01-22T23:22:59.993Z,102563.00
2023-01-22T23:25:27.540Z,102546.72
2023-01-22T23:27:55.829Z,102552.84
2023-01-22T23:30:23.438Z,102553.66
2023-01-22T23:32:51.002Z,102556.94
2023-01-22T23:35:18.641Z,102543.78
2023-01-22T23:37:46.107Z,102546.50
2023-01-22T23:40:13.740Z,102546.53
2023-01-22T23:42:41.388Z,102550.06
2023-01-22T23:45:11.619Z,102543.91
2023-01-22T23:47:39.603Z,102543.03
2023-01-22T23:50:08.782Z,102535.34
2023-01-22T23:52:38.213Z,102535.50
2023-01-22T23:55:06.214Z,102533.75
2023-01-22T23:57:34.256Z,102531.88
